sensor_id;sensor_type;location;lat;lon;timestamp;pressure;altitude;pressure_sealevel;temperature;humidity
72570;BME280;60594;50.204;8.844;2024-01-16T00:00:14;99245.63;;;0.07;90.79
72570;BME280;60594;50.204;8.844;2024-01-16T00:03:19;99239.31;;;0.11;91.10
72570;BME280;60594;50.204;8.844;2024-01-16T00:06:04;99245.91;;;0.18;90.69
72570;BME280;60594;50.204;8.844;2024-01-16T00:08:53;99251.94;;;0.20;90.84
72570;BME280;60594;50.204;8.844;2024-01-16T00:11:44;99255.50;;;0.19;90.93
72570;BME280;60594;50.204;8.844;2024-01-16T00:14:29;99254.72;;;0.17;92.27
72570;BME280;60594;50.204;8.844;2024-01-16T00:17:14;99267.97;;;0.14;91.38
72570;BME280;60594;50.204;8.844;2024-01-16T00:19:59;99263.81;;;0.10;92.65
72570;BME280;60594;50.204;8.844;2024-01-16T00:22:45;99261.19;;;0.10;92.35
72570;BME280;60594;50.204;8.844;2024-01-16T00:25:30;99264.84;;;0.08;92.83
72570;BME280;60594;50.204;8.844;2024-01-16T00:28:15;99258.06;;;0.03;92.63
72570;BME280;60594;50.204;8.844;2024-01-16T00:31:00;99262.63;;;0.00;92.23
72570;BME280;60594;50.204;8.844;2024-01-16T00:33:44;99269.63;;;-0.01;92.21
72570;BME280;60594;50.204;8.844;2024-01-16T00:36:29;99268.09;;;-0.05;92.41
72570;BME280;60594;50.204;8.844;2024-01-16T00:39:15;99269.88;;;-0.05;93.14
72570;BME280;60594;50.204;8.844;2024-01-16T00:42:01;99274.78;;;0.01;92.67
72570;BME280;60594;50.204;8.844;2024-01-16T00:44:46;99285.13;;;0.04;92.63
72570;BME280;60594;50.204;8.844;2024-01-16T00:47:31;99277.06;;;0.07;92.67
72570;BME280;60594;50.204;8.844;2024-01-16T00:50:16;99276.34;;;-0.12;93.33
72570;BME280;60594;50.204;8.844;2024-01-16T00:53:01;99287.03;;;0.00;92.76
72570;BME280;60594;50.204;8.844;2024-01-16T00:55:45;99289.72;;;-0.01;92.58
72570;BME280;60594;50.204;8.844;2024-01-16T00:58:30;99285.56;;;-0.05;93.96
72570;BME280;60594;50.204;8.844;2024-01-16T01:01:15;99288.34;;;-0.08;94.95
72570;BME280;60594;50.204;8.844;2024-01-16T01:04:00;99289.13;;;-0.06;94.99
72570;BME280;60594;50.204;8.844;2024-01-16T01:06:45;99296.03;;;-0.05;95.37
72570;BME280;60594;50.204;8.844;2024-01-16T01:09:32;99295.13;;;-0.04;96.16
72570;BME280;60594;50.204;8.844;2024-01-16T01:12:17;99292.50;;;-0.04;95.67
72570;BME280;60594;50.204;8.844;2024-01-16T01:15:02;99303.91;;;-0.05;95.77
72570;BME280;60594;50.204;8.844;2024-01-16T01:17:49;99296.03;;;-0.05;96.21
72570;BME280;60594;50.204;8.844;2024-01-16T01:20:34;99298.06;;;-0.10;95.52
72570;BME280;60594;50.204;8.844;2024-01-16T01:23:19;99306.84;;;-0.11;95.85
72570;BME280;60594;50.204;8.844;2024-01-16T01:26:04;99308.63;;;-0.12;95.55
72570;BME280;60594;50.204;8.844;2024-01-16T01:28:49;99311.16;;;-0.10;96.16
72570;BME280;60594;50.204;8.844;2024-01-16T01:31:35;99311.00;;;-0.07;95.23
72570;BME280;60594;50.204;8.844;2024-01-16T01:34:20;99318.09;;;-0.09;95.05
72570;BME280;60594;50.204;8.844;2024-01-16T01:37:05;99318.22;;;-0.12;94.73
72570;BME280;60594;50.204;8.844;2024-01-16T01:39:49;99326.25;;;-0.15;94.82
72570;BME280;60594;50.204;8.844;2024-01-16T01:42:34;99330.13;;;-0.22;94.67
72570;BME280;60594;50.204;8.844;2024-01-16T01:45:19;99331.16;;;-0.26;94.66
72570;BME280;60594;50.204;8.844;2024-01-16T01:48:05;99329.63;;;-0.30;95.74
72570;BME280;60594;50.204;8.844;2024-01-16T01:50:51;99334.94;;;-0.32;95.31
72570;BME280;60594;50.204;8.844;2024-01-16T01:53:38;99341.19;;;-0.34;95.96
72570;BME280;60594;50.204;8.844;2024-01-16T01:56:23;99328.81;;;-0.31;96.33
72570;BME280;60594;50.204;8.844;2024-01-16T01:59:08;99337.34;;;-0.27;96.85
72570;BME280;60594;50.204;8.844;2024-01-16T02:01:53;99341.50;;;-0.23;96.86
72570;BME280;60594;50.204;8.844;2024-01-16T02:04:40;99346.50;;;-0.19;95.88
72570;BME280;60594;50.204;8.844;2024-01-16T02:07:25;99339.31;;;-0.15;95.62
72570;BME280;60594;50.204;8.844;2024-01-16T02:10:10;99342.13;;;-0.18;94.94
72570;BME280;60594;50.204;8.844;2024-01-16T02:12:55;99349.03;;;-0.17;95.19
72570;BME280;60594;50.204;8.844;2024-01-16T02:15:40;99351.50;;;-0.14;95.98
72570;BME280;60594;50.204;8.844;2024-01-16T02:18:25;99345.28;;;-0.12;95.74
72570;BME280;60594;50.204;8.844;2024-01-16T02:21:12;99351.19;;;-0.08;95.12
72570;BME280;60594;50.204;8.844;2024-01-16T02:23:57;99348.41;;;-0.05;95.28
72570;BME280;60594;50.204;8.844;2024-01-16T02:26:43;99342.09;;;-0.01;95.38
72570;BME280;60594;50.204;8.844;2024-01-16T02:29:27;99359.53;;;0.00;94.77
72570;BME280;60594;50.204;8.844;2024-01-16T02:32:13;99353.66;;;-0.05;94.56
72570;BME280;60594;50.204;8.844;2024-01-16T02:34:58;99355.44;;;-0.06;94.85
72570;BME280;60594;50.204;8.844;2024-01-16T02:37:44;99350.44;;;-0.10;94.60
72570;BME280;60594;50.204;8.844;2024-01-16T02:40:28;99352.41;;;-0.15;95.19
72570;BME280;60594;50.204;8.844;2024-01-16T02:43:14;99359.09;;;-0.10;95.11
72570;BME280;60594;50.204;8.844;2024-01-16T02:45:58;99363.53;;;-0.10;95.66
72570;BME280;60594;50.204;8.844;2024-01-16T02:48:43;99364.34;;;-0.10;95.59
72570;BME280;60594;50.204;8.844;2024-01-16T02:51:29;99365.91;;;-0.06;94.47
72570;BME280;60594;50.204;8.844;2024-01-16T02:54:14;99366.91;;;-0.25;94.98
72570;BME280;60594;50.204;8.844;2024-01-16T02:56:59;99356.53;;;-0.27;95.84
72570;BME280;60594;50.204;8.844;2024-01-16T02:59:44;99363.19;;;-0.38;96.29
72570;BME280;60594;50.204;8.844;2024-01-16T03:02:29;99360.44;;;-0.35;96.92
72570;BME280;60594;50.204;8.844;2024-01-16T03:05:15;99368.31;;;-0.18;95.98
72570;BME280;60594;50.204;8.844;2024-01-16T03:07:59;99371.31;;;-0.09;96.03
72570;BME280;60594;50.204;8.844;2024-01-16T03:10:45;99375.97;;;0.02;95.59
72570;BME280;60594;50.204;8.844;2024-01-16T03:13:30;99372.69;;;-0.02;95.64
72570;BME280;60594;50.204;8.844;2024-01-16T03:16:15;99383.53;;;0.08;96.05
72570;BME280;60594;50.204;8.844;2024-01-16T03:19:00;99381.59;;;0.12;96.26
72570;BME280;60594;50.204;8.844;2024-01-16T03:21:45;99392.56;;;0.03;96.32
72570;BME280;60594;50.204;8.844;2024-01-16T03:24:30;99390.69;;;0.04;97.32
72570;BME280;60594;50.204;8.844;2024-01-16T03:27:15;99392.94;;;-0.05;98.26
72570;BME280;60594;50.204;8.844;2024-01-16T03:30:01;99391.78;;;-0.17;98.60
72570;BME280;60594;50.204;8.844;2024-01-16T03:32:47;99401.84;;;-0.26;98.12
72570;BME280;60594;50.204;8.844;2024-01-16T03:35:32;99393.16;;;-0.27;97.36
72570;BME280;60594;50.204;8.844;2024-01-16T03:38:17;99393.91;;;-0.42;98.94
72570;BME280;60594;50.204;8.844;2024-01-16T03:41:03;99390.53;;;-0.27;97.56
72570;BME280;60594;50.204;8.844;2024-01-16T03:43:52;99394.50;;;-0.54;98.47
72570;BME280;60594;50.204;8.844;2024-01-16T03:46:39;99396.22;;;-0.53;98.03
72570;BME280;60594;50.204;8.844;2024-01-16T03:49:24;99396.75;;;-0.46;98.53
72570;BME280;60594;50.204;8.844;2024-01-16T03:52:10;99392.13;;;-0.58;98.47
72570;BME280;60594;50.204;8.844;2024-01-16T03:54:55;99396.34;;;-0.56;98.25
72570;BME280;60594;50.204;8.844;2024-01-16T03:57:40;99395.28;;;-0.70;97.45
72570;BME280;60594;50.204;8.844;2024-01-16T04:00:25;99389.94;;;-0.67;97.53
72570;BME280;60594;50.204;8.844;2024-01-16T04:03:10;99398.28;;;-0.78;97.24
72570;BME280;60594;50.204;8.844;2024-01-16T04:05:56;99394.81;;;-0.78;98.12
72570;BME280;60594;50.204;8.844;2024-01-16T04:08:40;99395.34;;;-0.53;97.89
72570;BME280;60594;50.204;8.844;2024-01-16T04:11:25;99394.00;;;-0.43;96.04
72570;BME280;60594;50.204;8.844;2024-01-16T04:14:10;99387.22;;;-0.30;95.13
72570;BME280;60594;50.204;8.844;2024-01-16T04:16:56;99384.84;;;-0.35;94.70
72570;BME280;60594;50.204;8.844;2024-01-16T04:19:41;99390.97;;;-0.36;95.41
72570;BME280;60594;50.204;8.844;2024-01-16T04:22:26;99385.22;;;-0.25;94.98
72570;BME280;60594;50.204;8.844;2024-01-16T04:25:11;99387.59;;;-0.21;94.87
72570;BME280;60594;50.204;8.844;2024-01-16T04:27:56;99394.22;;;-0.14;94.09
72570;BME280;60594;50.204;8.844;2024-01-16T04:30:40;99393.31;;;-0.13;93.64
72570;BME280;60594;50.204;8.844;2024-01-16T04:33:25;99388.09;;;-0.13;92.89
72570;BME280;60594;50.204;8.844;2024-01-16T04:36:10;99382.69;;;-0.10;92.68
72570;BME280;60594;50.204;8.844;2024-01-16T04:38:55;99376.38;;;-0.06;92.74
72570;BME280;60594;50.204;8.844;2024-01-16T04:41:41;99384.84;;;-0.01;92.70
72570;BME280;60594;50.204;8.844;2024-01-16T04:44:26;99380.53;;;-0.02;91.61
72570;BME280;60594;50.204;8.844;2024-01-16T04:47:10;99375.22;;;0.00;91.64
72570;BME280;60594;50.204;8.844;2024-01-16T04:49:56;99379.38;;;0.04;91.99
72570;BME280;60594;50.204;8.844;2024-01-16T04:52:42;99382.00;;;0.04;90.93
72570;BME280;60594;50.204;8.844;2024-01-16T04:55:28;99387.25;;;0.04;91.90
72570;BME280;60594;50.204;8.844;2024-01-16T04:58:13;99387.38;;;0.01;91.63
72570;BME280;60594;50.204;8.844;2024-01-16T05:00:58;99382.91;;;0.03;91.99
72570;BME280;60594;50.204;8.844;2024-01-16T05:03:43;99388.16;;;0.03;91.59
72570;BME280;60594;50.204;8.844;2024-01-16T05:06:29;99388.31;;;0.00;91.74
72570;BME280;60594;50.204;8.844;2024-01-16T05:09:14;99385.06;;;-0.05;92.63
72570;BME280;60594;50.204;8.844;2024-01-16T05:12:00;99395.00;;;-0.29;92.47
72570;BME280;60594;50.204;8.844;2024-01-16T05:14:45;99397.34;;;-0.41;93.92
72570;BME280;60594;50.204;8.844;2024-01-16T05:17:30;99388.75;;;-0.43;93.90
72570;BME280;60594;50.204;8.844;2024-01-16T05:20:14;99390.59;;;-0.45;94.99
72570;BME280;60594;50.204;8.844;2024-01-16T05:22:59;99379.28;;;-0.46;94.73
72570;BME280;60594;50.204;8.844;2024-01-16T05:25:44;99386.75;;;-0.55;96.39
72570;BME280;60594;50.204;8.844;2024-01-16T05:28:30;99381.78;;;-0.61;96.94
72570;BME280;60594;50.204;8.844;2024-01-16T05:31:15;99380.09;;;-0.62;97.08
72570;BME280;60594;50.204;8.844;2024-01-16T05:34:00;99379.19;;;-0.61;98.42
72570;BME280;60594;50.204;8.844;2024-01-16T05:36:45;99375.69;;;-0.62;98.43
72570;BME280;60594;50.204;8.844;2024-01-16T05:39:30;99372.81;;;-0.56;98.62
72570;BME280;60594;50.204;8.844;2024-01-16T05:42:17;99365.63;;;-0.52;98.63
72570;BME280;60594;50.204;8.844;2024-01-16T05:45:02;99367.63;;;-0.57;99.00
72570;BME280;60594;50.204;8.844;2024-01-16T05:47:48;99366.53;;;-0.70;99.16
72570;BME280;60594;50.204;8.844;2024-01-16T05:50:34;99358.72;;;-0.53;98.60
72570;BME280;60594;50.204;8.844;2024-01-16T05:53:19;99369.91;;;-0.50;98.96
72570;BME280;60594;50.204;8.844;2024-01-16T05:56:05;99373.56;;;-0.54;98.27
72570;BME280;60594;50.204;8.844;2024-01-16T05:58:49;99367.03;;;-0.62;99.61
72570;BME280;60594;50.204;8.844;2024-01-16T06:01:34;99380.88;;;-0.60;99.71
72570;BME280;60594;50.204;8.844;2024-01-16T06:04:19;99366.09;;;-0.61;99.37
72570;BME280;60594;50.204;8.844;2024-01-16T06:07:04;99369.66;;;-0.81;100.00
72570;BME280;60594;50.204;8.844;2024-01-16T06:09:51;99372.59;;;-0.87;100.00
72570;BME280;60594;50.204;8.844;2024-01-16T06:12:36;99369.25;;;-0.90;100.00
72570;BME280;60594;50.204;8.844;2024-01-16T06:15:21;99365.63;;;-1.05;100.00
72570;BME280;60594;50.204;8.844;2024-01-16T06:18:06;99358.19;;;-1.14;99.70
72570;BME280;60594;50.204;8.844;2024-01-16T06:20:52;99354.09;;;-1.19;99.75
72570;BME280;60594;50.204;8.844;2024-01-16T06:23:37;99356.50;;;-1.15;99.54
72570;BME280;60594;50.204;8.844;2024-01-16T06:26:22;99355.22;;;-1.06;98.17
72570;BME280;60594;50.204;8.844;2024-01-16T06:29:08;99357.31;;;-0.96;97.65
72570;BME280;60594;50.204;8.844;2024-01-16T06:31:52;99346.66;;;-0.91;97.20
72570;BME280;60594;50.204;8.844;2024-01-16T06:34:38;99345.03;;;-0.94;97.41
72570;BME280;60594;50.204;8.844;2024-01-16T06:37:23;99340.97;;;-0.82;95.89
72570;BME280;60594;50.204;8.844;2024-01-16T06:40:09;99341.69;;;-0.79;95.89
72570;BME280;60594;50.204;8.844;2024-01-16T06:42:53;99341.63;;;-0.77;95.12
72570;BME280;60594;50.204;8.844;2024-01-16T06:45:39;99325.53;;;-0.70;95.19
72570;BME280;60594;50.204;8.844;2024-01-16T06:48:24;99330.47;;;-0.64;94.03
72570;BME280;60594;50.204;8.844;2024-01-16T06:51:09;99337.88;;;-0.55;93.60
72570;BME280;60594;50.204;8.844;2024-01-16T06:53:55;99341.94;;;-0.49;93.67
72570;BME280;60594;50.204;8.844;2024-01-16T06:56:40;99338.72;;;-0.54;93.99
72570;BME280;60594;50.204;8.844;2024-01-16T06:59:25;99337.66;;;-0.50;92.86
72570;BME280;60594;50.204;8.844;2024-01-16T07:02:10;99342.69;;;-0.64;94.08
72570;BME280;60594;50.204;8.844;2024-01-16T07:04:55;99338.34;;;-0.82;95.29
72570;BME280;60594;50.204;8.844;2024-01-16T07:07:40;99345.50;;;-0.86;95.13
72570;BME280;60594;50.204;8.844;2024-01-16T07:10:25;99340.16;;;-1.01;96.86
72570;BME280;60594;50.204;8.844;2024-01-16T07:13:10;99344.84;;;-1.08;97.29
72570;BME280;60594;50.204;8.844;2024-01-16T07:15:57;99348.59;;;-1.13;96.86
72570;BME280;60594;50.204;8.844;2024-01-16T07:18:42;99345.41;;;-1.20;97.02
72570;BME280;60594;50.204;8.844;2024-01-16T07:21:27;99361.09;;;-1.20;97.55
72570;BME280;60594;50.204;8.844;2024-01-16T07:24:12;99371.91;;;-1.27;97.78
72570;BME280;60594;50.204;8.844;2024-01-16T07:26:58;99374.00;;;-1.35;96.97
72570;BME280;60594;50.204;8.844;2024-01-16T07:29:43;99367.50;;;-1.45;98.31
72570;BME280;60594;50.204;8.844;2024-01-16T07:32:28;99381.75;;;-1.52;98.80
72570;BME280;60594;50.204;8.844;2024-01-16T07:35:13;99383.00;;;-1.61;98.71
72570;BME280;60594;50.204;8.844;2024-01-16T07:37:58;99387.47;;;-1.63;98.80
72570;BME280;60594;50.204;8.844;2024-01-16T07:40:43;99387.34;;;-1.60;98.87
72570;BME280;60594;50.204;8.844;2024-01-16T07:43:28;99395.59;;;-1.50;98.51
72570;BME280;60594;50.204;8.844;2024-01-16T07:46:15;99393.50;;;-1.42;97.40
72570;BME280;60594;50.204;8.844;2024-01-16T07:49:00;99398.94;;;-1.28;96.65
72570;BME280;60594;50.204;8.844;2024-01-16T07:51:45;99404.31;;;-1.31;96.44
72570;BME280;60594;50.204;8.844;2024-01-16T07:54:30;99402.75;;;-1.35;97.17
72570;BME280;60594;50.204;8.844;2024-01-16T07:57:16;99401.06;;;-1.36;97.81
72570;BME280;60594;50.204;8.844;2024-01-16T08:00:01;99406.44;;;-1.39;96.98
72570;BME280;60594;50.204;8.844;2024-01-16T08:02:46;99405.13;;;-1.49;97.53
72570;BME280;60594;50.204;8.844;2024-01-16T08:05:31;99415.03;;;-1.37;96.89
72570;BME280;60594;50.204;8.844;2024-01-16T08:08:16;99419.34;;;-1.36;96.93
72570;BME280;60594;50.204;8.844;2024-01-16T08:11:01;99413.09;;;-1.52;97.43
72570;BME280;60594;50.204;8.844;2024-01-16T08:13:46;99409.44;;;-1.48;97.02
72570;BME280;60594;50.204;8.844;2024-01-16T08:16:31;99410.34;;;-1.49;97.36
72570;BME280;60594;50.204;8.844;2024-01-16T08:19:15;99400.59;;;-1.46;96.41
72570;BME280;60594;50.204;8.844;2024-01-16T08:22:00;99399.22;;;-1.34;96.18
72570;BME280;60594;50.204;8.844;2024-01-16T08:24:47;99404.19;;;-1.28;96.14
72570;BME280;60594;50.204;8.844;2024-01-16T08:27:32;99410.22;;;-1.28;95.66
72570;BME280;60594;50.204;8.844;2024-01-16T08:30:17;99411.94;;;-1.27;95.41
72570;BME280;60594;50.204;8.844;2024-01-16T08:33:03;99422.47;;;-1.28;95.44
72570;BME280;60594;50.204;8.844;2024-01-16T08:35:47;99423.53;;;-1.14;94.82
72570;BME280;60594;50.204;8.844;2024-01-16T08:38:32;99428.41;;;-1.06;94.50
72570;BME280;60594;50.204;8.844;2024-01-16T08:41:17;99427.22;;;-0.99;93.66
72570;BME280;60594;50.204;8.844;2024-01-16T08:44:03;99429.19;;;-1.04;94.72
72570;BME280;60594;50.204;8.844;2024-01-16T08:46:49;99439.31;;;-0.97;93.93
72570;BME280;60594;50.204;8.844;2024-01-16T08:49:34;99435.53;;;-1.10;94.04
72570;BME280;60594;50.204;8.844;2024-01-16T08:52:19;99435.59;;;-1.11;94.23
72570;BME280;60594;50.204;8.844;2024-01-16T08:55:04;99436.53;;;-1.12;94.58
72570;BME280;60594;50.204;8.844;2024-01-16T08:57:49;99433.50;;;-1.03;94.70
72570;BME280;60594;50.204;8.844;2024-01-16T09:00:34;99436.88;;;-1.01;95.08
72570;BME280;60594;50.204;8.844;2024-01-16T09:03:19;99429.66;;;-0.96;94.15
72570;BME280;60594;50.204;8.844;2024-01-16T09:06:04;99431.16;;;-1.09;94.16
72570;BME280;60594;50.204;8.844;2024-01-16T09:08:49;99415.47;;;-1.09;94.26
72570;BME280;60594;50.204;8.844;2024-01-16T09:11:34;99416.84;;;-1.01;94.21
72570;BME280;60594;50.204;8.844;2024-01-16T09:14:19;99419.22;;;-0.96;93.67
72570;BME280;60594;50.204;8.844;2024-01-16T09:17:05;99426.84;;;-0.92;94.29
72570;BME280;60594;50.204;8.844;2024-01-16T09:19:50;99433.50;;;-0.85;94.44
72570;BME280;60594;50.204;8.844;2024-01-16T09:22:35;99427.06;;;-0.78;94.32
72570;BME280;60594;50.204;8.844;2024-01-16T09:25:20;99433.69;;;-0.89;94.07
72570;BME280;60594;50.204;8.844;2024-01-16T09:28:08;99428.34;;;-0.86;94.68
72570;BME280;60594;50.204;8.844;2024-01-16T09:30:52;99442.59;;;-0.93;94.96
72570;BME280;60594;50.204;8.844;2024-01-16T09:33:40;99450.31;;;-0.90;94.79
72570;BME280;60594;50.204;8.844;2024-01-16T09:36:25;99460.69;;;-0.70;94.47
72570;BME280;60594;50.204;8.844;2024-01-16T09:39:10;99451.22;;;-0.73;93.27
72570;BME280;60594;50.204;8.844;2024-01-16T09:42:01;99461.06;;;-0.78;93.86
72570;BME280;60594;50.204;8.844;2024-01-16T09:44:48;99465.94;;;-0.89;93.66
72570;BME280;60594;50.204;8.844;2024-01-16T09:47:34;99455.75;;;-0.76;94.77
72570;BME280;60594;50.204;8.844;2024-01-16T09:50:19;99462.69;;;-0.75;93.27
72570;BME280;60594;50.204;8.844;2024-01-16T09:53:05;99466.78;;;-0.88;93.54
72570;BME280;60594;50.204;8.844;2024-01-16T09:55:50;99472.38;;;-0.77;94.03
72570;BME280;60594;50.204;8.844;2024-01-16T09:58:38;99480.66;;;-0.68;92.79
72570;BME280;60594;50.204;8.844;2024-01-16T10:01:25;99476.31;;;-0.69;92.63
72570;BME280;60594;50.204;8.844;2024-01-16T10:04:11;99470.34;;;-0.54;91.64
72570;BME280;60594;50.204;8.844;2024-01-16T10:06:58;99472.50;;;-0.62;91.51
72570;BME280;60594;50.204;8.844;2024-01-16T10:09:43;99470.28;;;-0.34;91.97
72570;BME280;60594;50.204;8.844;2024-01-16T10:12:28;99467.84;;;-0.55;91.51
72570;BME280;60594;50.204;8.844;2024-01-16T10:15:14;99455.50;;;-0.35;90.50
72570;BME280;60594;50.204;8.844;2024-01-16T10:18:00;99464.66;;;-0.26;90.55
72570;BME280;60594;50.204;8.844;2024-01-16T10:20:45;99460.28;;;-0.26;91.64
72570;BME280;60594;50.204;8.844;2024-01-16T10:23:30;99464.03;;;-0.31;92.07
72570;BME280;60594;50.204;8.844;2024-01-16T10:26:17;99458.66;;;-0.28;90.43
72570;BME280;60594;50.204;8.844;2024-01-16T10:29:05;99449.34;;;-0.34;89.38
72570;BME280;60594;50.204;8.844;2024-01-16T10:31:50;99448.63;;;-0.37;90.28
72570;BME280;60594;50.204;8.844;2024-01-16T10:34:35;99436.78;;;-0.44;91.12
72570;BME280;60594;50.204;8.844;2024-01-16T10:37:20;99434.63;;;-0.36;91.57
72570;BME280;60594;50.204;8.844;2024-01-16T10:40:07;99433.69;;;-0.17;91.63
72570;BME280;60594;50.204;8.844;2024-01-16T10:43:00;99436.78;;;-0.27;90.23
72570;BME280;60594;50.204;8.844;2024-01-16T10:45:45;99436.97;;;-0.13;90.50
72570;BME280;60594;50.204;8.844;2024-01-16T10:48:30;99443.91;;;0.05;89.69
72570;BME280;60594;50.204;8.844;2024-01-16T10:51:15;99433.13;;;-0.06;89.12
72570;BME280;60594;50.204;8.844;2024-01-16T10:54:03;99429.91;;;-0.11;88.25
72570;BME280;60594;50.204;8.844;2024-01-16T10:56:50;99428.03;;;-0.09;88.87
72570;BME280;60594;50.204;8.844;2024-01-16T10:59:40;99426.97;;;-0.22;90.22
72570;BME280;60594;50.204;8.844;2024-01-16T11:02:42;99428.56;;;-0.37;90.30
72570;BME280;60594;50.204;8.844;2024-01-16T11:05:29;99427.03;;;-0.24;89.61
72570;BME280;60594;50.204;8.844;2024-01-16T11:08:16;99424.75;;;-0.13;88.51
72570;BME280;60594;50.204;8.844;2024-01-16T11:11:02;99417.28;;;-0.03;88.15
72570;BME280;60594;50.204;8.844;2024-01-16T11:13:48;99421.63;;;-0.21;88.60
72570;BME280;60594;50.204;8.844;2024-01-16T11:16:34;99423.56;;;-0.24;89.85
72570;BME280;60594;50.204;8.844;2024-01-16T11:19:20;99412.16;;;-0.23;89.77
72570;BME280;60594;50.204;8.844;2024-01-16T11:22:05;99408.97;;;-0.11;87.96
72570;BME280;60594;50.204;8.844;2024-01-16T11:25:10;99398.78;;;-0.17;89.24
72570;BME280;60594;50.204;8.844;2024-01-16T11:28:07;99394.78;;;-0.07;89.16
72570;BME280;60594;50.204;8.844;2024-01-16T11:30:52;99396.25;;;-0.02;88.66
72570;BME280;60594;50.204;8.844;2024-01-16T11:36:51;99387.78;;;0.11;88.51
72570;BME280;60594;50.204;8.844;2024-01-16T11:39:39;99379.69;;;0.15;88.38
72570;BME280;60594;50.204;8.844;2024-01-16T11:42:25;99374.63;;;0.28;88.16
72570;BME280;60594;50.204;8.844;2024-01-16T11:48:13;99369.94;;;0.34;87.09
72570;BME280;60594;50.204;8.844;2024-01-16T11:50:59;99369.22;;;0.48;87.19
72570;BME280;60594;50.204;8.844;2024-01-16T11:53:44;99358.81;;;0.46;85.97
72570;BME280;60594;50.204;8.844;2024-01-16T11:56:41;99348.34;;;0.29;86.81
72570;BME280;60594;50.204;8.844;2024-01-16T11:59:59;99343.66;;;0.36;87.10
72570;BME280;60594;50.204;8.844;2024-01-16T12:05:29;99335.50;;;0.57;85.45
72570;BME280;60594;50.204;8.844;2024-01-16T12:08:21;99340.16;;;0.52;84.47
72570;BME280;60594;50.204;8.844;2024-01-16T12:11:07;99339.59;;;0.46;86.15
72570;BME280;60594;50.204;8.844;2024-01-16T12:14:04;99336.75;;;0.50;86.14
72570;BME280;60594;50.204;8.844;2024-01-16T12:16:48;99329.19;;;0.44;84.77
72570;BME280;60594;50.204;8.844;2024-01-16T12:19:33;99320.78;;;0.55;85.21
72570;BME280;60594;50.204;8.844;2024-01-16T12:22:19;99327.47;;;0.76;83.69
72570;BME280;60594;50.204;8.844;2024-01-16T12:25:07;99323.25;;;1.04;82.39
72570;BME280;60594;50.204;8.844;2024-01-16T12:28:05;99311.31;;;1.14;82.44
72570;BME280;60594;50.204;8.844;2024-01-16T12:30:51;99306.53;;;1.36;82.29
72570;BME280;60594;50.204;8.844;2024-01-16T12:33:36;99313.88;;;1.45;80.05
72570;BME280;60594;50.204;8.844;2024-01-16T12:36:21;99309.13;;;1.52;79.23
72570;BME280;60594;50.204;8.844;2024-01-16T12:39:07;99308.97;;;1.39;78.73
72570;BME280;60594;50.204;8.844;2024-01-16T12:41:56;99306.97;;;1.29;78.98
72570;BME280;60594;50.204;8.844;2024-01-16T12:44:41;99313.41;;;1.23;80.56
72570;BME280;60594;50.204;8.844;2024-01-16T12:47:26;99299.75;;;1.03;79.85
72570;BME280;60594;50.204;8.844;2024-01-16T12:50:19;99302.59;;;0.98;80.88
72570;BME280;60594;50.204;8.844;2024-01-16T12:53:08;99305.31;;;1.12;80.59
72570;BME280;60594;50.204;8.844;2024-01-16T12:56:00;99298.28;;;1.13;80.54
72570;BME280;60594;50.204;8.844;2024-01-16T12:58:47;99294.19;;;1.23;79.57
72570;BME280;60594;50.204;8.844;2024-01-16T13:01:32;99291.56;;;1.23;79.43
72570;BME280;60594;50.204;8.844;2024-01-16T13:04:17;99287.81;;;1.13;80.06
72570;BME280;60594;50.204;8.844;2024-01-16T13:07:04;99273.81;;;1.28;80.48
72570;BME280;60594;50.204;8.844;2024-01-16T13:10:11;99277.44;;;1.55;79.21
72570;BME280;60594;50.204;8.844;2024-01-16T13:13:16;99276.19;;;1.90;77.95
72570;BME280;60594;50.204;8.844;2024-01-16T13:16:04;99278.00;;;1.89;76.63
72570;BME280;60594;50.204;8.844;2024-01-16T13:19:00;99276.50;;;1.99;77.02
72570;BME280;60594;50.204;8.844;2024-01-16T13:21:47;99277.25;;;2.15;74.81
72570;BME280;60594;50.204;8.844;2024-01-16T13:24:32;99266.75;;;2.01;74.57
72570;BME280;60594;50.204;8.844;2024-01-16T13:27:17;99267.22;;;1.94;75.15
72570;BME280;60594;50.204;8.844;2024-01-16T13:30:02;99258.75;;;1.89;74.29
72570;BME280;60594;50.204;8.844;2024-01-16T13:32:47;99260.16;;;1.94;73.97
72570;BME280;60594;50.204;8.844;2024-01-16T13:35:40;99260.13;;;1.80;74.77
72570;BME280;60594;50.204;8.844;2024-01-16T13:38:25;99258.53;;;1.78;74.35
72570;BME280;60594;50.204;8.844;2024-01-16T13:41:11;99257.59;;;1.65;75.12
72570;BME280;60594;50.204;8.844;2024-01-16T13:43:56;99248.88;;;1.64;75.17
72570;BME280;60594;50.204;8.844;2024-01-16T13:46:41;99249.50;;;1.54;75.44
72570;BME280;60594;50.204;8.844;2024-01-16T13:49:26;99241.56;;;1.69;75.20
72570;BME280;60594;50.204;8.844;2024-01-16T13:52:11;99247.47;;;1.73;75.27
72570;BME280;60594;50.204;8.844;2024-01-16T13:54:56;99230.09;;;1.56;75.61
72570;BME280;60594;50.204;8.844;2024-01-16T13:57:42;99234.25;;;1.74;75.37
72570;BME280;60594;50.204;8.844;2024-01-16T14:00:27;99238.22;;;1.81;75.82
72570;BME280;60594;50.204;8.844;2024-01-16T14:03:12;99236.81;;;1.76;74.99
72570;BME280;60594;50.204;8.844;2024-01-16T14:05:57;99230.19;;;1.55;74.12
72570;BME280;60594;50.204;8.844;2024-01-16T14:08:41;99241.28;;;1.74;74.79
72570;BME280;60594;50.204;8.844;2024-01-16T14:11:27;99245.00;;;1.56;73.88
72570;BME280;60594;50.204;8.844;2024-01-16T14:14:12;99236.75;;;1.48;75.02
72570;BME280;60594;50.204;8.844;2024-01-16T14:16:58;99239.94;;;1.53;75.62
72570;BME280;60594;50.204;8.844;2024-01-16T14:19:42;99239.38;;;1.48;75.25
72570;BME280;60594;50.204;8.844;2024-01-16T14:22:28;99247.03;;;1.37;76.26
72570;BME280;60594;50.204;8.844;2024-01-16T14:25:13;99249.38;;;1.12;76.79
72570;BME280;60594;50.204;8.844;2024-01-16T14:28:02;99259.22;;;0.93;76.84
72570;BME280;60594;50.204;8.844;2024-01-16T14:30:49;99250.59;;;0.91;77.51
72570;BME280;60594;50.204;8.844;2024-01-16T14:33:35;99258.97;;;0.97;77.39
72570;BME280;60594;50.204;8.844;2024-01-16T14:36:20;99254.31;;;0.87;78.23
72570;BME280;60594;50.204;8.844;2024-01-16T14:39:05;99249.50;;;0.95;77.47
72570;BME280;60594;50.204;8.844;2024-01-16T14:41:50;99251.88;;;0.84;78.68
72570;BME280;60594;50.204;8.844;2024-01-16T14:44:36;99262.06;;;1.04;77.87
72570;BME280;60594;50.204;8.844;2024-01-16T14:47:20;99254.91;;;0.92;77.45
72570;BME280;60594;50.204;8.844;2024-01-16T14:50:08;99260.72;;;0.81;78.14